ENSG/SOG METAR and TAF weather

Enter ICAO airport designator
Station Type Date Time Source
ENSG METAR 2023/01/30 11:50 UTC NOAA

ENSG 301150Z 24013KT 3500 -SHSN VV016 M01/M03 Q0994 RMK WIND 3806FT 30042KT


Station Type Date Time Source
ENSG Decoded METAR 2023/01/30 11:50 UTC NOAA

Sogndal / Haukasen, Norway (ENSG) 61-09N 007-08E 497M
Jan 30, 2023 - 06:50 AM EST / 2023.01.30 1150 UTC
Wind: from the WSW (240 degrees) at 15 MPH (13 KT):0
Visibility: 2 mile(s):0
Sky conditions: obscured
Weather: light snow showers
Temperature: 30 F (-1 C)
Windchill: 19 F (-7 C):1
Dew Point: 26 F (-3 C)
Relative Humidity: 86%
Pressure (altimeter): 29.35 in. Hg (0994 hPa)
ob: ENSG 301150Z 24013KT 3500 -SHSN VV016 M01/M03 Q0994 RMK WIND 3806FT 30042KT
cycle: 12

Station Type Date Time Source
ENSG TAF UTC NOAA

Error!

Example: see airport list